sensor_id;sensor_type;location;lat;lon;timestamp;pressure;altitude;pressure_sealevel;temperature;humidity
73242;BME280;65659;49.234;-2.094;2024-01-07T00:00:20;101012.13;;;10.06;42.80
73242;BME280;65659;49.234;-2.094;2024-01-07T00:02:45;101014.16;;;10.14;42.38
73242;BME280;65659;49.234;-2.094;2024-01-07T00:05:10;101011.13;;;10.08;42.37
73242;BME280;65659;49.234;-2.094;2024-01-07T00:07:35;101008.70;;;10.02;42.48
73242;BME280;65659;49.234;-2.094;2024-01-07T00:10:00;101010.60;;;10.07;42.54
73242;BME280;65659;49.234;-2.094;2024-01-07T00:12:25;101012.68;;;10.18;42.69
73242;BME280;65659;49.234;-2.094;2024-01-07T00:14:50;101013.87;;;10.21;42.74
73242;BME280;65659;49.234;-2.094;2024-01-07T00:17:15;101017.72;;;10.35;42.90
73242;BME280;65659;49.234;-2.094;2024-01-07T00:19:40;101022.86;;;10.40;43.38
73242;BME280;65659;49.234;-2.094;2024-01-07T00:22:06;101027.24;;;10.34;43.48
73242;BME280;65659;49.234;-2.094;2024-01-07T00:24:31;101035.51;;;10.31;43.99
73242;BME280;65659;49.234;-2.094;2024-01-07T00:26:56;101037.53;;;10.06;44.18
73242;BME280;65659;49.234;-2.094;2024-01-07T00:29:21;101038.80;;;10.36;44.30
73242;BME280;65659;49.234;-2.094;2024-01-07T00:31:46;101043.42;;;10.35;44.24
73242;BME280;65659;49.234;-2.094;2024-01-07T00:34:12;101040.28;;;10.08;44.18
73242;BME280;65659;49.234;-2.094;2024-01-07T00:36:37;101039.14;;;9.96;44.26
73242;BME280;65659;49.234;-2.094;2024-01-07T00:39:02;101040.28;;;10.25;43.87
73242;BME280;65659;49.234;-2.094;2024-01-07T00:41:27;101041.54;;;9.71;43.98
73242;BME280;65659;49.234;-2.094;2024-01-07T00:43:52;101045.61;;;9.83;43.94
73242;BME280;65659;49.234;-2.094;2024-01-07T00:46:17;101040.47;;;9.98;43.87
73242;BME280;65659;49.234;-2.094;2024-01-07T00:48:42;101038.32;;;9.87;44.07
73242;BME280;65659;49.234;-2.094;2024-01-07T00:51:07;101035.53;;;9.80;44.34
73242;BME280;65659;49.234;-2.094;2024-01-07T00:53:32;101031.17;;;9.72;44.63
73242;BME280;65659;49.234;-2.094;2024-01-07T00:55:57;101033.95;;;9.91;44.90
73242;BME280;65659;49.234;-2.094;2024-01-07T00:58:23;101034.31;;;9.65;44.87
73242;BME280;65659;49.234;-2.094;2024-01-07T01:00:48;101033.70;;;9.63;44.93
73242;BME280;65659;49.234;-2.094;2024-01-07T01:03:13;101036.11;;;9.70;44.90
73242;BME280;65659;49.234;-2.094;2024-01-07T01:05:39;101037.93;;;9.75;44.97
73242;BME280;65659;49.234;-2.094;2024-01-07T01:08:04;101041.05;;;9.79;44.56
73242;BME280;65659;49.234;-2.094;2024-01-07T01:10:29;101042.67;;;9.75;44.24
73242;BME280;65659;49.234;-2.094;2024-01-07T01:12:54;101042.82;;;9.56;43.89
73242;BME280;65659;49.234;-2.094;2024-01-07T01:15:19;101043.54;;;9.71;43.74
73242;BME280;65659;49.234;-2.094;2024-01-07T01:17:44;101047.96;;;9.75;43.54
73242;BME280;65659;49.234;-2.094;2024-01-07T01:20:10;101046.26;;;9.73;43.22
73242;BME280;65659;49.234;-2.094;2024-01-07T01:22:35;101047.76;;;9.67;42.99
73242;BME280;65659;49.234;-2.094;2024-01-07T01:25:00;101045.18;;;9.63;42.61
73242;BME280;65659;49.234;-2.094;2024-01-07T01:27:25;101050.17;;;9.62;42.36
73242;BME280;65659;49.234;-2.094;2024-01-07T01:29:50;101050.35;;;9.60;42.23
73242;BME280;65659;49.234;-2.094;2024-01-07T01:32:15;101048.92;;;9.52;42.36
73242;BME280;65659;49.234;-2.094;2024-01-07T01:34:40;101047.50;;;9.49;42.22
73242;BME280;65659;49.234;-2.094;2024-01-07T01:37:07;101053.59;;;9.46;42.24
73242;BME280;65659;49.234;-2.094;2024-01-07T01:39:31;101052.98;;;9.47;42.18
73242;BME280;65659;49.234;-2.094;2024-01-07T01:41:55;101056.58;;;9.75;41.85
73242;BME280;65659;49.234;-2.094;2024-01-07T01:44:21;101057.37;;;9.56;41.42
73242;BME280;65659;49.234;-2.094;2024-01-07T01:46:47;101062.63;;;9.86;41.09
73242;BME280;65659;49.234;-2.094;2024-01-07T01:49:11;101065.82;;;9.65;41.32
73242;BME280;65659;49.234;-2.094;2024-01-07T01:51:37;101066.83;;;10.00;41.46
73242;BME280;65659;49.234;-2.094;2024-01-07T01:54:02;101064.84;;;10.07;41.78
73242;BME280;65659;49.234;-2.094;2024-01-07T01:56:27;101068.93;;;9.97;41.46
73242;BME280;65659;49.234;-2.094;2024-01-07T01:58:51;101073.46;;;9.80;41.45
73242;BME280;65659;49.234;-2.094;2024-01-07T02:01:16;101075.50;;;10.05;41.51
73242;BME280;65659;49.234;-2.094;2024-01-07T02:03:41;101072.00;;;10.14;41.23
73242;BME280;65659;49.234;-2.094;2024-01-07T02:06:06;101077.58;;;10.23;41.20
73242;BME280;65659;49.234;-2.094;2024-01-07T02:08:32;101080.24;;;10.25;41.44
73242;BME280;65659;49.234;-2.094;2024-01-07T02:10:57;101087.71;;;10.10;41.48
73242;BME280;65659;49.234;-2.094;2024-01-07T02:13:22;101089.29;;;10.12;41.41
73242;BME280;65659;49.234;-2.094;2024-01-07T02:15:47;101089.11;;;9.72;41.33
73242;BME280;65659;49.234;-2.094;2024-01-07T02:18:12;101086.37;;;10.08;41.10
73242;BME280;65659;49.234;-2.094;2024-01-07T02:20:37;101093.83;;;10.52;41.03
73242;BME280;65659;49.234;-2.094;2024-01-07T02:23:03;101093.46;;;10.28;41.03
73242;BME280;65659;49.234;-2.094;2024-01-07T02:25:27;101096.56;;;10.06;41.11
73242;BME280;65659;49.234;-2.094;2024-01-07T02:27:52;101096.76;;;10.55;41.21
73242;BME280;65659;49.234;-2.094;2024-01-07T02:30:18;101099.35;;;10.48;41.25
73242;BME280;65659;49.234;-2.094;2024-01-07T02:32:43;101095.31;;;10.34;41.22
73242;BME280;65659;49.234;-2.094;2024-01-07T02:35:08;101092.28;;;10.30;41.13
73242;BME280;65659;49.234;-2.094;2024-01-07T02:37:34;101093.51;;;10.55;40.95
73242;BME280;65659;49.234;-2.094;2024-01-07T02:39:58;101096.75;;;10.31;40.89
73242;BME280;65659;49.234;-2.094;2024-01-07T02:42:23;101096.61;;;10.09;40.74
73242;BME280;65659;49.234;-2.094;2024-01-07T02:44:48;101093.48;;;10.36;40.63
73242;BME280;65659;49.234;-2.094;2024-01-07T02:47:13;101095.09;;;10.64;40.36
73242;BME280;65659;49.234;-2.094;2024-01-07T02:49:38;101099.84;;;10.19;40.03
73242;BME280;65659;49.234;-2.094;2024-01-07T02:52:04;101102.29;;;10.42;39.65
73242;BME280;65659;49.234;-2.094;2024-01-07T02:54:29;101105.40;;;10.40;39.34
73242;BME280;65659;49.234;-2.094;2024-01-07T02:56:54;101108.33;;;10.40;39.28
73242;BME280;65659;49.234;-2.094;2024-01-07T02:59:19;101100.47;;;10.47;39.05
73242;BME280;65659;49.234;-2.094;2024-01-07T03:01:44;101103.66;;;10.44;39.15
73242;BME280;65659;49.234;-2.094;2024-01-07T03:04:10;101105.27;;;10.45;39.41
73242;BME280;65659;49.234;-2.094;2024-01-07T03:06:34;101106.38;;;10.37;39.64
73242;BME280;65659;49.234;-2.094;2024-01-07T03:08:59;101105.50;;;10.62;39.75
73242;BME280;65659;49.234;-2.094;2024-01-07T03:11:24;101103.67;;;10.29;39.51
73242;BME280;65659;49.234;-2.094;2024-01-07T03:13:49;101104.59;;;10.13;39.96
73242;BME280;65659;49.234;-2.094;2024-01-07T03:16:19;101103.29;;;10.47;39.49
73242;BME280;65659;49.234;-2.094;2024-01-07T03:18:39;101111.20;;;10.57;39.44
73242;BME280;65659;49.234;-2.094;2024-01-07T03:21:04;101108.94;;;10.35;39.13
73242;BME280;65659;49.234;-2.094;2024-01-07T03:23:29;101109.47;;;10.36;38.89
73242;BME280;65659;49.234;-2.094;2024-01-07T03:25:54;101111.26;;;10.39;38.95
73242;BME280;65659;49.234;-2.094;2024-01-07T03:28:20;101111.65;;;10.11;39.11
73242;BME280;65659;49.234;-2.094;2024-01-07T03:30:45;101129.03;;;10.12;39.24
73242;BME280;65659;49.234;-2.094;2024-01-07T03:33:09;101124.49;;;10.33;39.65
73242;BME280;65659;49.234;-2.094;2024-01-07T03:35:35;101132.61;;;10.55;39.96
73242;BME280;65659;49.234;-2.094;2024-01-07T03:38:00;101131.62;;;10.43;40.44
73242;BME280;65659;49.234;-2.094;2024-01-07T03:40:25;101126.34;;;9.78;40.82
73242;BME280;65659;49.234;-2.094;2024-01-07T03:42:50;101125.48;;;10.05;40.93
73242;BME280;65659;49.234;-2.094;2024-01-07T03:45:15;101125.93;;;10.17;41.23
73242;BME280;65659;49.234;-2.094;2024-01-07T03:47:41;101122.18;;;10.16;41.15
73242;BME280;65659;49.234;-2.094;2024-01-07T03:50:06;101120.01;;;10.13;41.14
73242;BME280;65659;49.234;-2.094;2024-01-07T03:52:30;101121.56;;;10.00;41.34
73242;BME280;65659;49.234;-2.094;2024-01-07T03:54:55;101124.15;;;9.93;41.44
73242;BME280;65659;49.234;-2.094;2024-01-07T03:57:20;101127.64;;;9.98;41.55
73242;BME280;65659;49.234;-2.094;2024-01-07T03:59:45;101127.49;;;9.97;41.77
73242;BME280;65659;49.234;-2.094;2024-01-07T04:02:10;101128.10;;;9.99;41.88
73242;BME280;65659;49.234;-2.094;2024-01-07T04:04:35;101133.04;;;9.80;41.81
73242;BME280;65659;49.234;-2.094;2024-01-07T04:07:00;101125.16;;;10.01;41.30
73242;BME280;65659;49.234;-2.094;2024-01-07T04:09:26;101127.94;;;9.96;41.06
73242;BME280;65659;49.234;-2.094;2024-01-07T04:11:51;101121.74;;;9.68;40.55
73242;BME280;65659;49.234;-2.094;2024-01-07T04:14:16;101123.38;;;10.01;40.05
73242;BME280;65659;49.234;-2.094;2024-01-07T04:16:41;101116.60;;;9.89;40.09
73242;BME280;65659;49.234;-2.094;2024-01-07T04:19:06;101117.73;;;9.89;39.95
73242;BME280;65659;49.234;-2.094;2024-01-07T04:21:31;101114.32;;;9.79;40.07
73242;BME280;65659;49.234;-2.094;2024-01-07T04:23:56;101115.33;;;9.88;40.03
73242;BME280;65659;49.234;-2.094;2024-01-07T04:26:21;101108.58;;;9.81;40.15
73242;BME280;65659;49.234;-2.094;2024-01-07T04:28:46;101110.75;;;9.87;40.36
73242;BME280;65659;49.234;-2.094;2024-01-07T04:31:11;101116.99;;;10.16;40.81
73242;BME280;65659;49.234;-2.094;2024-01-07T04:33:37;101117.83;;;9.70;41.15
73242;BME280;65659;49.234;-2.094;2024-01-07T04:36:02;101123.89;;;10.00;41.23
73242;BME280;65659;49.234;-2.094;2024-01-07T04:38:27;101124.73;;;9.98;41.55
73242;BME280;65659;49.234;-2.094;2024-01-07T04:40:52;101134.76;;;9.88;41.83
73242;BME280;65659;49.234;-2.094;2024-01-07T04:43:17;101142.77;;;9.89;42.32
73242;BME280;65659;49.234;-2.094;2024-01-07T04:45:42;101151.77;;;9.96;43.08
73242;BME280;65659;49.234;-2.094;2024-01-07T04:48:07;101151.78;;;9.84;44.05
73242;BME280;65659;49.234;-2.094;2024-01-07T04:50:32;101151.16;;;9.78;44.52
73242;BME280;65659;49.234;-2.094;2024-01-07T04:52:57;101151.75;;;9.47;45.10
73242;BME280;65659;49.234;-2.094;2024-01-07T04:55:22;101147.55;;;9.55;44.95
73242;BME280;65659;49.234;-2.094;2024-01-07T04:57:47;101146.41;;;9.52;44.92
73242;BME280;65659;49.234;-2.094;2024-01-07T05:00:13;101144.63;;;9.40;45.07
73242;BME280;65659;49.234;-2.094;2024-01-07T05:02:38;101147.07;;;9.43;45.06
73242;BME280;65659;49.234;-2.094;2024-01-07T05:05:04;101147.86;;;9.44;45.21
73242;BME280;65659;49.234;-2.094;2024-01-07T05:07:28;101149.19;;;9.22;45.36
73242;BME280;65659;49.234;-2.094;2024-01-07T05:09:53;101149.55;;;9.71;45.36
73242;BME280;65659;49.234;-2.094;2024-01-07T05:12:19;101148.95;;;9.71;45.61
73242;BME280;65659;49.234;-2.094;2024-01-07T05:14:43;101149.80;;;9.44;45.85
73242;BME280;65659;49.234;-2.094;2024-01-07T05:17:09;101149.50;;;9.46;45.60
73242;BME280;65659;49.234;-2.094;2024-01-07T05:19:34;101146.45;;;9.45;45.08
73242;BME280;65659;49.234;-2.094;2024-01-07T05:21:59;101159.76;;;9.57;44.38
73242;BME280;65659;49.234;-2.094;2024-01-07T05:24:24;101154.05;;;9.57;44.68
73242;BME280;65659;49.234;-2.094;2024-01-07T05:26:49;101155.94;;;9.89;44.45
73242;BME280;65659;49.234;-2.094;2024-01-07T05:29:14;101155.09;;;9.64;44.22
73242;BME280;65659;49.234;-2.094;2024-01-07T05:31:39;101158.22;;;9.75;43.76
73242;BME280;65659;49.234;-2.094;2024-01-07T05:34:04;101161.75;;;9.74;43.57
73242;BME280;65659;49.234;-2.094;2024-01-07T05:36:30;101163.43;;;9.73;43.32
73242;BME280;65659;49.234;-2.094;2024-01-07T05:38:55;101169.18;;;9.39;43.61
73242;BME280;65659;49.234;-2.094;2024-01-07T05:41:20;101169.79;;;9.41;43.16
73242;BME280;65659;49.234;-2.094;2024-01-07T05:43:46;101171.20;;;9.69;42.97
73242;BME280;65659;49.234;-2.094;2024-01-07T05:46:11;101170.91;;;9.42;42.27
73242;BME280;65659;49.234;-2.094;2024-01-07T05:48:42;101165.87;;;9.56;42.21
73242;BME280;65659;49.234;-2.094;2024-01-07T05:51:01;101164.89;;;9.41;42.81
73242;BME280;65659;49.234;-2.094;2024-01-07T05:53:26;101172.21;;;9.30;42.97
73242;BME280;65659;49.234;-2.094;2024-01-07T05:55:51;101172.61;;;9.52;43.14
73242;BME280;65659;49.234;-2.094;2024-01-07T05:58:16;101176.00;;;9.16;43.36
73242;BME280;65659;49.234;-2.094;2024-01-07T06:00:41;101180.04;;;9.17;43.17
73242;BME280;65659;49.234;-2.094;2024-01-07T06:03:06;101179.01;;;9.13;42.88
73242;BME280;65659;49.234;-2.094;2024-01-07T06:05:31;101186.57;;;9.22;43.14
73242;BME280;65659;49.234;-2.094;2024-01-07T06:07:56;101182.92;;;8.93;42.93
73242;BME280;65659;49.234;-2.094;2024-01-07T06:10:21;101181.28;;;9.10;43.05
73242;BME280;65659;49.234;-2.094;2024-01-07T06:12:46;101182.47;;;8.62;43.16
73242;BME280;65659;49.234;-2.094;2024-01-07T06:15:12;101187.06;;;9.09;43.10
73242;BME280;65659;49.234;-2.094;2024-01-07T06:17:37;101185.70;;;8.86;43.08
73242;BME280;65659;49.234;-2.094;2024-01-07T06:20:02;101193.37;;;8.85;43.08
73242;BME280;65659;49.234;-2.094;2024-01-07T06:22:27;101196.03;;;8.88;43.20
73242;BME280;65659;49.234;-2.094;2024-01-07T06:24:53;101199.00;;;9.06;43.16
73242;BME280;65659;49.234;-2.094;2024-01-07T06:27:18;101206.31;;;8.99;43.12
73242;BME280;65659;49.234;-2.094;2024-01-07T06:29:43;101205.66;;;8.94;43.05
73242;BME280;65659;49.234;-2.094;2024-01-07T06:32:08;101214.21;;;8.86;43.08
73242;BME280;65659;49.234;-2.094;2024-01-07T06:34:33;101214.80;;;8.67;42.98
73242;BME280;65659;49.234;-2.094;2024-01-07T06:36:58;101215.03;;;8.70;43.03
73242;BME280;65659;49.234;-2.094;2024-01-07T06:39:23;101218.85;;;8.95;42.70
73242;BME280;65659;49.234;-2.094;2024-01-07T06:41:48;101217.92;;;8.87;42.63
73242;BME280;65659;49.234;-2.094;2024-01-07T06:44:14;101212.81;;;8.58;42.84
73242;BME280;65659;49.234;-2.094;2024-01-07T06:46:40;101225.28;;;8.89;42.44
73242;BME280;65659;49.234;-2.094;2024-01-07T06:49:04;101225.91;;;8.76;42.39
73242;BME280;65659;49.234;-2.094;2024-01-07T06:51:29;101230.03;;;8.55;42.44
73242;BME280;65659;49.234;-2.094;2024-01-07T06:53:54;101233.62;;;8.61;41.68
73242;BME280;65659;49.234;-2.094;2024-01-07T06:56:20;101240.02;;;8.91;41.98
73242;BME280;65659;49.234;-2.094;2024-01-07T06:58:45;101237.95;;;9.03;42.32
73242;BME280;65659;49.234;-2.094;2024-01-07T07:01:10;101241.82;;;9.17;42.50
73242;BME280;65659;49.234;-2.094;2024-01-07T07:03:35;101243.05;;;9.08;42.59
73242;BME280;65659;49.234;-2.094;2024-01-07T07:06:00;101248.17;;;9.46;42.61
73242;BME280;65659;49.234;-2.094;2024-01-07T07:08:25;101250.88;;;9.34;42.41
73242;BME280;65659;49.234;-2.094;2024-01-07T07:10:50;101263.92;;;9.50;42.61
73242;BME280;65659;49.234;-2.094;2024-01-07T07:13:15;101260.52;;;9.54;42.51
73242;BME280;65659;49.234;-2.094;2024-01-07T07:15:40;101264.37;;;9.38;42.56
73242;BME280;65659;49.234;-2.094;2024-01-07T07:18:05;101266.63;;;9.71;42.13
73242;BME280;65659;49.234;-2.094;2024-01-07T07:20:31;101270.84;;;9.31;42.01
73242;BME280;65659;49.234;-2.094;2024-01-07T07:22:56;101265.27;;;9.33;41.73
73242;BME280;65659;49.234;-2.094;2024-01-07T07:25:21;101271.50;;;9.26;41.79
73242;BME280;65659;49.234;-2.094;2024-01-07T07:27:46;101268.01;;;9.99;41.31
73242;BME280;65659;49.234;-2.094;2024-01-07T07:30:11;101271.57;;;9.45;41.36
73242;BME280;65659;49.234;-2.094;2024-01-07T07:32:39;101269.57;;;9.64;41.19
73242;BME280;65659;49.234;-2.094;2024-01-07T07:35:03;101278.11;;;9.44;41.29
73242;BME280;65659;49.234;-2.094;2024-01-07T07:37:27;101269.96;;;9.22;41.37
73242;BME280;65659;49.234;-2.094;2024-01-07T07:39:52;101269.43;;;9.17;41.44
73242;BME280;65659;49.234;-2.094;2024-01-07T07:42:17;101278.34;;;9.05;41.61
73242;BME280;65659;49.234;-2.094;2024-01-07T07:44:43;101279.54;;;9.14;41.27
73242;BME280;65659;49.234;-2.094;2024-01-07T07:47:09;101287.34;;;9.24;41.12
73242;BME280;65659;49.234;-2.094;2024-01-07T07:49:32;101290.65;;;9.42;41.43
73242;BME280;65659;49.234;-2.094;2024-01-07T07:51:59;101291.69;;;9.26;41.62
73242;BME280;65659;49.234;-2.094;2024-01-07T07:54:22;101292.68;;;9.29;41.75
73242;BME280;65659;49.234;-2.094;2024-01-07T07:56:48;101293.32;;;9.20;41.88
73242;BME280;65659;49.234;-2.094;2024-01-07T07:59:13;101295.54;;;9.24;41.34
73242;BME280;65659;49.234;-2.094;2024-01-07T08:01:38;101295.41;;;9.11;41.56
73242;BME280;65659;49.234;-2.094;2024-01-07T08:04:03;101295.86;;;9.20;41.13
73242;BME280;65659;49.234;-2.094;2024-01-07T08:06:28;101300.50;;;9.24;41.12
73242;BME280;65659;49.234;-2.094;2024-01-07T08:08:53;101301.97;;;9.56;41.65
73242;BME280;65659;49.234;-2.094;2024-01-07T08:11:18;101306.47;;;9.35;41.60
73242;BME280;65659;49.234;-2.094;2024-01-07T08:13:43;101305.53;;;9.22;41.89
73242;BME280;65659;49.234;-2.094;2024-01-07T08:16:08;101302.47;;;9.40;42.03
73242;BME280;65659;49.234;-2.094;2024-01-07T08:18:34;101308.22;;;9.23;42.12
73242;BME280;65659;49.234;-2.094;2024-01-07T08:20:59;101306.44;;;9.18;41.88
73242;BME280;65659;49.234;-2.094;2024-01-07T08:23:24;101301.65;;;9.02;42.06
73242;BME280;65659;49.234;-2.094;2024-01-07T08:25:50;101306.93;;;9.36;41.73
73242;BME280;65659;49.234;-2.094;2024-01-07T08:28:14;101310.15;;;9.09;41.63
73242;BME280;65659;49.234;-2.094;2024-01-07T08:30:39;101307.16;;;9.35;41.56
73242;BME280;65659;49.234;-2.094;2024-01-07T08:33:04;101307.66;;;9.10;41.62
73242;BME280;65659;49.234;-2.094;2024-01-07T08:35:30;101308.94;;;9.06;41.81
73242;BME280;65659;49.234;-2.094;2024-01-07T08:37:54;101308.65;;;9.08;41.91
73242;BME280;65659;49.234;-2.094;2024-01-07T08:40:20;101319.46;;;9.15;41.63
73242;BME280;65659;49.234;-2.094;2024-01-07T08:42:45;101318.83;;;9.03;41.81
73242;BME280;65659;49.234;-2.094;2024-01-07T08:45:10;101325.66;;;9.29;41.92
73242;BME280;65659;49.234;-2.094;2024-01-07T08:47:35;101329.76;;;9.34;41.36
73242;BME280;65659;49.234;-2.094;2024-01-07T08:50:00;101335.65;;;8.97;41.42
73242;BME280;65659;49.234;-2.094;2024-01-07T08:52:25;101333.17;;;9.03;40.73
73242;BME280;65659;49.234;-2.094;2024-01-07T08:54:50;101336.21;;;9.49;40.66
73242;BME280;65659;49.234;-2.094;2024-01-07T08:57:15;101340.61;;;9.03;40.51
73242;BME280;65659;49.234;-2.094;2024-01-07T08:59:40;101346.51;;;8.90;40.61
73242;BME280;65659;49.234;-2.094;2024-01-07T09:02:06;101357.86;;;9.50;40.28
73242;BME280;65659;49.234;-2.094;2024-01-07T09:04:31;101356.93;;;9.22;40.71
73242;BME280;65659;49.234;-2.094;2024-01-07T09:06:56;101367.21;;;8.88;40.93
73242;BME280;65659;49.234;-2.094;2024-01-07T09:09:21;101366.21;;;8.92;41.14
73242;BME280;65659;49.234;-2.094;2024-01-07T09:11:46;101364.78;;;8.94;40.87
73242;BME280;65659;49.234;-2.094;2024-01-07T09:14:11;101360.51;;;9.54;39.52
73242;BME280;65659;49.234;-2.094;2024-01-07T09:16:36;101361.87;;;9.48;39.35
73242;BME280;65659;49.234;-2.094;2024-01-07T09:19:02;101367.59;;;8.94;39.29
73242;BME280;65659;49.234;-2.094;2024-01-07T09:21:27;101368.61;;;9.06;39.46
73242;BME280;65659;49.234;-2.094;2024-01-07T09:23:52;101371.66;;;9.03;39.70
73242;BME280;65659;49.234;-2.094;2024-01-07T09:26:17;101376.70;;;9.18;40.06
73242;BME280;65659;49.234;-2.094;2024-01-07T09:28:42;101377.49;;;8.84;39.61
73242;BME280;65659;49.234;-2.094;2024-01-07T09:31:07;101373.65;;;9.09;39.95
73242;BME280;65659;49.234;-2.094;2024-01-07T09:33:33;101387.14;;;9.01;40.21
73242;BME280;65659;49.234;-2.094;2024-01-07T09:35:58;101385.67;;;9.21;40.16
73242;BME280;65659;49.234;-2.094;2024-01-07T09:38:23;101388.73;;;8.87;40.28
73242;BME280;65659;49.234;-2.094;2024-01-07T09:40:49;101397.98;;;9.18;40.30
73242;BME280;65659;49.234;-2.094;2024-01-07T09:43:13;101401.33;;;8.86;40.15
73242;BME280;65659;49.234;-2.094;2024-01-07T09:45:39;101406.11;;;9.06;40.28
73242;BME280;65659;49.234;-2.094;2024-01-07T09:48:04;101407.36;;;8.70;40.41
73242;BME280;65659;49.234;-2.094;2024-01-07T09:50:29;101399.80;;;8.89;40.32
73242;BME280;65659;49.234;-2.094;2024-01-07T09:52:56;101397.50;;;8.99;40.23
73242;BME280;65659;49.234;-2.094;2024-01-07T09:55:25;101405.93;;;9.02;40.35
73242;BME280;65659;49.234;-2.094;2024-01-07T09:57:44;101402.75;;;9.02;40.09
73242;BME280;65659;49.234;-2.094;2024-01-07T10:00:10;101401.26;;;8.88;39.95
73242;BME280;65659;49.234;-2.094;2024-01-07T10:02:34;101400.80;;;9.09;40.07
73242;BME280;65659;49.234;-2.094;2024-01-07T10:05:00;101408.63;;;8.70;40.00
73242;BME280;65659;49.234;-2.094;2024-01-07T10:07:25;101413.26;;;8.95;40.10
73242;BME280;65659;49.234;-2.094;2024-01-07T10:09:50;101419.91;;;8.93;40.25
73242;BME280;65659;49.234;-2.094;2024-01-07T10:12:16;101419.26;;;8.64;40.32
73242;BME280;65659;49.234;-2.094;2024-01-07T10:14:41;101422.06;;;8.88;39.82
73242;BME280;65659;49.234;-2.094;2024-01-07T10:17:14;101418.58;;;8.85;39.65
73242;BME280;65659;49.234;-2.094;2024-01-07T10:19:31;101424.51;;;9.04;38.74
73242;BME280;65659;49.234;-2.094;2024-01-07T10:22:01;101428.14;;;9.01;38.81
73242;BME280;65659;49.234;-2.094;2024-01-07T10:24:21;101437.23;;;8.79;38.48
73242;BME280;65659;49.234;-2.094;2024-01-07T10:26:46;101431.31;;;9.13;37.67
73242;BME280;65659;49.234;-2.094;2024-01-07T10:29:11;101433.03;;;9.03;37.83
73242;BME280;65659;49.234;-2.094;2024-01-07T10:31:38;101430.55;;;9.33;37.39
73242;BME280;65659;49.234;-2.094;2024-01-07T10:34:02;101444.67;;;9.20;37.21
73242;BME280;65659;49.234;-2.094;2024-01-07T10:36:28;101447.43;;;9.06;37.28
73242;BME280;65659;49.234;-2.094;2024-01-07T10:38:53;101451.42;;;9.12;37.19
73242;BME280;65659;49.234;-2.094;2024-01-07T10:41:18;101445.52;;;8.91;36.88
73242;BME280;65659;49.234;-2.094;2024-01-07T10:43:45;101442.11;;;8.81;36.30
73242;BME280;65659;49.234;-2.094;2024-01-07T10:46:09;101444.21;;;9.35;36.48
73242;BME280;65659;49.234;-2.094;2024-01-07T10:48:37;101446.35;;;9.44;36.69
73242;BME280;65659;49.234;-2.094;2024-01-07T10:50:59;101439.54;;;9.10;36.91
73242;BME280;65659;49.234;-2.094;2024-01-07T10:53:24;101438.09;;;8.98;37.04
73242;BME280;65659;49.234;-2.094;2024-01-07T10:55:54;101430.72;;;9.08;36.73
73242;BME280;65659;49.234;-2.094;2024-01-07T10:58:14;101434.20;;;9.16;36.75
73242;BME280;65659;49.234;-2.094;2024-01-07T11:00:40;101432.09;;;9.28;36.93
73242;BME280;65659;49.234;-2.094;2024-01-07T11:03:10;101427.22;;;9.24;37.23
73242;BME280;65659;49.234;-2.094;2024-01-07T11:05:33;101431.59;;;9.24;37.31
73242;BME280;65659;49.234;-2.094;2024-01-07T11:08:01;101424.46;;;9.21;37.20
73242;BME280;65659;49.234;-2.094;2024-01-07T11:10:22;101423.19;;;9.23;37.28
73242;BME280;65659;49.234;-2.094;2024-01-07T11:12:53;101422.83;;;9.38;37.29
73242;BME280;65659;49.234;-2.094;2024-01-07T11:15:10;101421.67;;;9.30;36.91
73242;BME280;65659;49.234;-2.094;2024-01-07T11:17:41;101425.14;;;9.17;36.86
73242;BME280;65659;49.234;-2.094;2024-01-07T11:20:00;101428.45;;;9.57;36.67
73242;BME280;65659;49.234;-2.094;2024-01-07T11:22:26;101431.25;;;9.09;36.67
73242;BME280;65659;49.234;-2.094;2024-01-07T11:24:51;101436.04;;;9.04;37.00
73242;BME280;65659;49.234;-2.094;2024-01-07T11:27:16;101437.96;;;9.35;35.91
73242;BME280;65659;49.234;-2.094;2024-01-07T11:29:41;101440.42;;;9.08;35.62
73242;BME280;65659;49.234;-2.094;2024-01-07T11:32:06;101444.62;;;9.08;35.49
73242;BME280;65659;49.234;-2.094;2024-01-07T11:34:39;101439.17;;;9.15;35.68
73242;BME280;65659;49.234;-2.094;2024-01-07T11:36:55;101434.02;;;9.29;35.73
73242;BME280;65659;49.234;-2.094;2024-01-07T11:39:21;101432.21;;;9.27;35.81
73242;BME280;65659;49.234;-2.094;2024-01-07T11:41:46;101445.03;;;9.59;35.85
73242;BME280;65659;49.234;-2.094;2024-01-07T11:44:11;101429.64;;;9.14;36.22
73242;BME280;65659;49.234;-2.094;2024-01-07T11:46:36;101430.97;;;9.39;36.72
73242;BME280;65659;49.234;-2.094;2024-01-07T11:49:01;101426.59;;;9.41;36.70
73242;BME280;65659;49.234;-2.094;2024-01-07T11:51:27;101422.96;;;9.19;36.38
73242;BME280;65659;49.234;-2.094;2024-01-07T11:53:51;101427.41;;;9.21;36.39
73242;BME280;65659;49.234;-2.094;2024-01-07T11:56:21;101420.44;;;9.24;35.95
73242;BME280;65659;49.234;-2.094;2024-01-07T11:58:41;101418.74;;;9.27;35.87
73242;BME280;65659;49.234;-2.094;2024-01-07T12:01:06;101417.64;;;9.29;36.06
73242;BME280;65659;49.234;-2.094;2024-01-07T12:03:37;101409.95;;;9.32;36.13
73242;BME280;65659;49.234;-2.094;2024-01-07T12:05:57;101404.14;;;9.41;36.13
73242;BME280;65659;49.234;-2.094;2024-01-07T12:08:22;101403.73;;;9.39;36.31
73242;BME280;65659;49.234;-2.094;2024-01-07T12:10:48;101404.44;;;9.44;35.87
73242;BME280;65659;49.234;-2.094;2024-01-07T12:13:13;101406.15;;;9.40;35.72
73242;BME280;65659;49.234;-2.094;2024-01-07T12:15:39;101405.08;;;9.44;35.79
73242;BME280;65659;49.234;-2.094;2024-01-07T12:18:04;101400.76;;;9.35;36.23
73242;BME280;65659;49.234;-2.094;2024-01-07T12:20:35;101399.72;;;9.31;36.56
73242;BME280;65659;49.234;-2.094;2024-01-07T12:22:56;101394.77;;;9.35;36.88
73242;BME280;65659;49.234;-2.094;2024-01-07T12:25:22;101400.65;;;9.30;37.31
73242;BME280;65659;49.234;-2.094;2024-01-07T12:27:44;101395.24;;;9.36;37.29
73242;BME280;65659;49.234;-2.094;2024-01-07T12:30:10;101395.07;;;9.43;37.20
73242;BME280;65659;49.234;-2.094;2024-01-07T12:32:35;101395.87;;;9.67;37.17
73242;BME280;65659;49.234;-2.094;2024-01-07T12:35:00;101402.54;;;9.45;37.25